sensor_id;sensor_type;location;lat;lon;timestamp;P1;durP1;ratioP1;P2;durP2;ratioP2
41233;SDS011;26968;42.686;23.352;2023-03-31T00:00:25;18.58;;;8.07;;
41233;SDS011;26968;42.686;23.352;2023-03-31T00:02:51;19.73;;;8.07;;
41233;SDS011;26968;42.686;23.352;2023-03-31T00:05:18;17.33;;;8.30;;
41233;SDS011;26968;42.686;23.352;2023-03-31T00:07:45;27.33;;;8.57;;
41233;SDS011;26968;42.686;23.352;2023-03-31T00:10:12;16.90;;;8.07;;
41233;SDS011;26968;42.686;23.352;2023-03-31T00:12:39;16.83;;;7.63;;
41233;SDS011;26968;42.686;23.352;2023-03-31T00:15:05;25.23;;;7.07;;
41233;SDS011;26968;42.686;23.352;2023-03-31T00:17:31;16.83;;;7.32;;
41233;SDS011;26968;42.686;23.352;2023-03-31T00:19:57;23.55;;;8.23;;
41233;SDS011;26968;42.686;23.352;2023-03-31T00:22:25;27.08;;;8.18;;
41233;SDS011;26968;42.686;23.352;2023-03-31T00:24:51;18.85;;;7.50;;
41233;SDS011;26968;42.686;23.352;2023-03-31T00:27:17;24.08;;;7.28;;
41233;SDS011;26968;42.686;23.352;2023-03-31T00:29:43;24.67;;;7.70;;
41233;SDS011;26968;42.686;23.352;2023-03-31T00:32:09;26.90;;;7.95;;
41233;SDS011;26968;42.686;23.352;2023-03-31T00:34:35;20.83;;;7.63;;
41233;SDS011;26968;42.686;23.352;2023-03-31T00:37:02;26.98;;;8.48;;
41233;SDS011;26968;42.686;23.352;2023-03-31T00:39:28;21.98;;;7.93;;
41233;SDS011;26968;42.686;23.352;2023-03-31T00:42:01;15.77;;;7.15;;
41233;SDS011;26968;42.686;23.352;2023-03-31T00:44:28;26.70;;;7.90;;
41233;SDS011;26968;42.686;23.352;2023-03-31T00:47:02;15.25;;;7.35;;
41233;SDS011;26968;42.686;23.352;2023-03-31T00:49:42;15.07;;;8.05;;
41233;SDS011;26968;42.686;23.352;2023-03-31T00:52:15;18.17;;;7.25;;
41233;SDS011;26968;42.686;23.352;2023-03-31T00:54:48;19.75;;;7.43;;
41233;SDS011;26968;42.686;23.352;2023-03-31T00:57:18;16.20;;;7.30;;
41233;SDS011;26968;42.686;23.352;2023-03-31T00:59:46;21.23;;;7.68;;
41233;SDS011;26968;42.686;23.352;2023-03-31T01:02:16;19.30;;;8.30;;
41233;SDS011;26968;42.686;23.352;2023-03-31T01:04:45;21.58;;;8.43;;
41233;SDS011;26968;42.686;23.352;2023-03-31T01:07:17;19.70;;;7.63;;
41233;SDS011;26968;42.686;23.352;2023-03-31T01:09:55;15.80;;;7.30;;
41233;SDS011;26968;42.686;23.352;2023-03-31T01:12:24;18.35;;;7.43;;
41233;SDS011;26968;42.686;23.352;2023-03-31T01:14:51;15.82;;;7.90;;
41233;SDS011;26968;42.686;23.352;2023-03-31T01:17:17;26.52;;;7.85;;
41233;SDS011;26968;42.686;23.352;2023-03-31T01:39:16;23.45;;;8.68;;
41233;SDS011;26968;42.686;23.352;2023-03-31T01:42:37;35.85;;;10.50;;
41233;SDS011;26968;42.686;23.352;2023-03-31T01:47:34;24.35;;;9.35;;
41233;SDS011;26968;42.686;23.352;2023-03-31T01:56:34;33.47;;;10.40;;
41233;SDS011;26968;42.686;23.352;2023-03-31T01:59:07;32.28;;;8.90;;
41233;SDS011;26968;42.686;23.352;2023-03-31T02:04:47;20.85;;;9.10;;
41233;SDS011;26968;42.686;23.352;2023-03-31T02:07:18;27.40;;;11.20;;
41233;SDS011;26968;42.686;23.352;2023-03-31T02:09:49;34.15;;;12.48;;
41233;SDS011;26968;42.686;23.352;2023-03-31T02:12:20;40.67;;;15.35;;
41233;SDS011;26968;42.686;23.352;2023-03-31T02:14:49;34.00;;;14.27;;
41233;SDS011;26968;42.686;23.352;2023-03-31T02:17:19;35.90;;;15.80;;
41233;SDS011;26968;42.686;23.352;2023-03-31T02:19:54;38.90;;;17.20;;
41233;SDS011;26968;42.686;23.352;2023-03-31T02:22:23;36.10;;;16.10;;
41233;SDS011;26968;42.686;23.352;2023-03-31T02:24:51;30.58;;;13.13;;
41233;SDS011;26968;42.686;23.352;2023-03-31T02:27:23;38.38;;;15.90;;
41233;SDS011;26968;42.686;23.352;2023-03-31T02:29:51;35.15;;;13.77;;
41233;SDS011;26968;42.686;23.352;2023-03-31T02:32:28;32.20;;;14.45;;
41233;SDS011;26968;42.686;23.352;2023-03-31T02:34:56;40.25;;;14.73;;
41233;SDS011;26968;42.686;23.352;2023-03-31T02:37:23;34.72;;;13.88;;
41233;SDS011;26968;42.686;23.352;2023-03-31T02:39:50;30.35;;;13.60;;
41233;SDS011;26968;42.686;23.352;2023-03-31T02:42:18;35.60;;;13.93;;
41233;SDS011;26968;42.686;23.352;2023-03-31T02:44:44;41.20;;;13.25;;
41233;SDS011;26968;42.686;23.352;2023-03-31T02:47:11;27.30;;;12.27;;
41233;SDS011;26968;42.686;23.352;2023-03-31T02:49:42;29.38;;;13.38;;
41233;SDS011;26968;42.686;23.352;2023-03-31T02:52:28;40.55;;;14.30;;
41233;SDS011;26968;42.686;23.352;2023-03-31T03:11:37;26.45;;;12.05;;
41233;SDS011;26968;42.686;23.352;2023-03-31T03:16:52;33.75;;;12.63;;
41233;SDS011;26968;42.686;23.352;2023-03-31T03:22:07;30.98;;;12.50;;
41233;SDS011;26968;42.686;23.352;2023-03-31T03:24:32;29.25;;;11.98;;
41233;SDS011;26968;42.686;23.352;2023-03-31T03:26:59;27.33;;;13.32;;
41233;SDS011;26968;42.686;23.352;2023-03-31T03:29:25;32.22;;;13.45;;
41233;SDS011;26968;42.686;23.352;2023-03-31T03:31:51;25.58;;;12.52;;
41233;SDS011;26968;42.686;23.352;2023-03-31T03:34:17;28.13;;;12.93;;
41233;SDS011;26968;42.686;23.352;2023-03-31T03:36:44;28.92;;;13.23;;
41233;SDS011;26968;42.686;23.352;2023-03-31T03:39:10;27.45;;;13.70;;
41233;SDS011;26968;42.686;23.352;2023-03-31T03:41:37;33.30;;;12.57;;
41233;SDS011;26968;42.686;23.352;2023-03-31T03:44:03;28.58;;;13.88;;
41233;SDS011;26968;42.686;23.352;2023-03-31T03:46:28;23.88;;;11.45;;
41233;SDS011;26968;42.686;23.352;2023-03-31T03:48:54;32.38;;;12.88;;
41233;SDS011;26968;42.686;23.352;2023-03-31T03:51:20;25.17;;;9.25;;
41233;SDS011;26968;42.686;23.352;2023-03-31T03:53:46;18.20;;;9.02;;
41233;SDS011;26968;42.686;23.352;2023-03-31T03:56:11;16.30;;;9.27;;
41233;SDS011;26968;42.686;23.352;2023-03-31T03:58:37;34.25;;;10.77;;
41233;SDS011;26968;42.686;23.352;2023-03-31T04:01:02;22.60;;;8.88;;
41233;SDS011;26968;42.686;23.352;2023-03-31T04:03:28;19.13;;;8.23;;
41233;SDS011;26968;42.686;23.352;2023-03-31T04:05:53;19.38;;;7.72;;
41233;SDS011;26968;42.686;23.352;2023-03-31T04:08:19;16.45;;;7.95;;
41233;SDS011;26968;42.686;23.352;2023-03-31T04:10:45;15.40;;;7.75;;
41233;SDS011;26968;42.686;23.352;2023-03-31T04:13:13;17.23;;;8.23;;
41233;SDS011;26968;42.686;23.352;2023-03-31T04:15:42;17.65;;;8.25;;
41233;SDS011;26968;42.686;23.352;2023-03-31T04:18:08;19.60;;;8.95;;
41233;SDS011;26968;42.686;23.352;2023-03-31T04:20:43;17.05;;;8.80;;
41233;SDS011;26968;42.686;23.352;2023-03-31T04:23:09;19.65;;;9.13;;
41233;SDS011;26968;42.686;23.352;2023-03-31T04:25:34;20.70;;;6.53;;
41233;SDS011;26968;42.686;23.352;2023-03-31T04:28:02;24.15;;;9.43;;
41233;SDS011;26968;42.686;23.352;2023-03-31T04:30:31;19.17;;;8.75;;
41233;SDS011;26968;42.686;23.352;2023-03-31T04:32:59;18.95;;;7.93;;
41233;SDS011;26968;42.686;23.352;2023-03-31T04:35:28;15.60;;;7.03;;
41233;SDS011;26968;42.686;23.352;2023-03-31T04:38:12;16.05;;;6.18;;
41233;SDS011;26968;42.686;23.352;2023-03-31T04:40:38;13.35;;;6.65;;
41233;SDS011;26968;42.686;23.352;2023-03-31T04:43:05;17.48;;;5.82;;
41233;SDS011;26968;42.686;23.352;2023-03-31T04:45:30;14.80;;;6.82;;
41233;SDS011;26968;42.686;23.352;2023-03-31T04:47:56;16.92;;;7.28;;
41233;SDS011;26968;42.686;23.352;2023-03-31T04:50:21;18.90;;;8.60;;
41233;SDS011;26968;42.686;23.352;2023-03-31T04:52:47;19.35;;;8.55;;
41233;SDS011;26968;42.686;23.352;2023-03-31T04:55:12;18.98;;;8.07;;
41233;SDS011;26968;42.686;23.352;2023-03-31T04:57:38;22.27;;;9.55;;
41233;SDS011;26968;42.686;23.352;2023-03-31T05:00:03;31.38;;;9.88;;
41233;SDS011;26968;42.686;23.352;2023-03-31T05:02:32;17.40;;;8.93;;
41233;SDS011;26968;42.686;23.352;2023-03-31T05:04:57;22.02;;;9.18;;
41233;SDS011;26968;42.686;23.352;2023-03-31T05:07:23;20.02;;;8.38;;
41233;SDS011;26968;42.686;23.352;2023-03-31T05:09:48;17.63;;;9.10;;
41233;SDS011;26968;42.686;23.352;2023-03-31T05:12:14;20.98;;;8.05;;
41233;SDS011;26968;42.686;23.352;2023-03-31T05:14:40;19.95;;;8.15;;
41233;SDS011;26968;42.686;23.352;2023-03-31T05:17:08;18.63;;;8.35;;
41233;SDS011;26968;42.686;23.352;2023-03-31T05:19:33;18.38;;;8.60;;
41233;SDS011;26968;42.686;23.352;2023-03-31T05:21:58;18.58;;;8.32;;
41233;SDS011;26968;42.686;23.352;2023-03-31T05:24:25;21.42;;;8.50;;
41233;SDS011;26968;42.686;23.352;2023-03-31T05:26:52;18.80;;;9.20;;
41233;SDS011;26968;42.686;23.352;2023-03-31T05:29:18;25.60;;;11.40;;
41233;SDS011;26968;42.686;23.352;2023-03-31T05:31:44;22.10;;;10.82;;
41233;SDS011;26968;42.686;23.352;2023-03-31T05:34:10;22.42;;;10.18;;
41233;SDS011;26968;42.686;23.352;2023-03-31T05:36:35;22.10;;;10.80;;
41233;SDS011;26968;42.686;23.352;2023-03-31T05:39:01;23.45;;;12.10;;
41233;SDS011;26968;42.686;23.352;2023-03-31T05:41:27;31.52;;;13.98;;
41233;SDS011;26968;42.686;23.352;2023-03-31T05:43:53;21.77;;;10.02;;
41233;SDS011;26968;42.686;23.352;2023-03-31T05:46:18;16.48;;;8.60;;
41233;SDS011;26968;42.686;23.352;2023-03-31T05:48:44;25.95;;;10.15;;
41233;SDS011;26968;42.686;23.352;2023-03-31T05:51:10;25.15;;;11.10;;
41233;SDS011;26968;42.686;23.352;2023-03-31T05:53:35;25.45;;;12.45;;
41233;SDS011;26968;42.686;23.352;2023-03-31T05:56:02;49.47;;;13.27;;
41233;SDS011;26968;42.686;23.352;2023-03-31T05:58:32;52.90;;;11.65;;
41233;SDS011;26968;42.686;23.352;2023-03-31T06:01:08;25.67;;;10.13;;
41233;SDS011;26968;42.686;23.352;2023-03-31T06:03:38;17.67;;;8.90;;
41233;SDS011;26968;42.686;23.352;2023-03-31T06:06:05;21.65;;;9.88;;
41233;SDS011;26968;42.686;23.352;2023-03-31T06:08:33;26.98;;;9.68;;
41233;SDS011;26968;42.686;23.352;2023-03-31T06:11:00;22.33;;;8.10;;
41233;SDS011;26968;42.686;23.352;2023-03-31T06:13:28;24.83;;;7.63;;
41233;SDS011;26968;42.686;23.352;2023-03-31T06:15:55;15.82;;;8.05;;
41233;SDS011;26968;42.686;23.352;2023-03-31T06:18:22;22.67;;;8.45;;
41233;SDS011;26968;42.686;23.352;2023-03-31T06:20:47;20.40;;;8.77;;
41233;SDS011;26968;42.686;23.352;2023-03-31T06:23:12;19.77;;;7.25;;
41233;SDS011;26968;42.686;23.352;2023-03-31T06:25:38;18.17;;;9.63;;
41233;SDS011;26968;42.686;23.352;2023-03-31T06:28:03;24.17;;;8.68;;
41233;SDS011;26968;42.686;23.352;2023-03-31T06:30:31;19.80;;;8.60;;
41233;SDS011;26968;42.686;23.352;2023-03-31T06:32:56;17.08;;;6.53;;
41233;SDS011;26968;42.686;23.352;2023-03-31T06:35:22;25.50;;;9.02;;
41233;SDS011;26968;42.686;23.352;2023-03-31T06:37:48;21.65;;;8.65;;
41233;SDS011;26968;42.686;23.352;2023-03-31T06:40:14;16.00;;;7.97;;
41233;SDS011;26968;42.686;23.352;2023-03-31T06:42:39;17.15;;;7.72;;
41233;SDS011;26968;42.686;23.352;2023-03-31T06:45:05;16.80;;;7.40;;
41233;SDS011;26968;42.686;23.352;2023-03-31T06:47:32;29.02;;;7.80;;
41233;SDS011;26968;42.686;23.352;2023-03-31T06:49:57;17.60;;;8.02;;
41233;SDS011;26968;42.686;23.352;2023-03-31T06:52:25;19.75;;;8.45;;
41233;SDS011;26968;42.686;23.352;2023-03-31T06:54:51;17.50;;;8.07;;
41233;SDS011;26968;42.686;23.352;2023-03-31T06:57:16;29.40;;;8.98;;
41233;SDS011;26968;42.686;23.352;2023-03-31T06:59:44;22.17;;;8.02;;
41233;SDS011;26968;42.686;23.352;2023-03-31T07:02:10;23.38;;;9.00;;
41233;SDS011;26968;42.686;23.352;2023-03-31T07:04:35;21.25;;;8.63;;
41233;SDS011;26968;42.686;23.352;2023-03-31T07:07:01;22.92;;;9.88;;
41233;SDS011;26968;42.686;23.352;2023-03-31T07:09:26;20.45;;;8.18;;
41233;SDS011;26968;42.686;23.352;2023-03-31T07:11:52;22.63;;;8.65;;
41233;SDS011;26968;42.686;23.352;2023-03-31T07:14:17;24.55;;;8.43;;
41233;SDS011;26968;42.686;23.352;2023-03-31T07:16:42;21.33;;;8.15;;
41233;SDS011;26968;42.686;23.352;2023-03-31T07:19:08;24.92;;;7.82;;
41233;SDS011;26968;42.686;23.352;2023-03-31T07:21:35;18.30;;;7.20;;
41233;SDS011;26968;42.686;23.352;2023-03-31T07:24:01;19.85;;;7.28;;
41233;SDS011;26968;42.686;23.352;2023-03-31T07:26:27;21.75;;;7.05;;
41233;SDS011;26968;42.686;23.352;2023-03-31T07:28:52;22.80;;;8.15;;
41233;SDS011;26968;42.686;23.352;2023-03-31T07:31:21;24.60;;;7.07;;
41233;SDS011;26968;42.686;23.352;2023-03-31T07:33:47;14.05;;;4.25;;
41233;SDS011;26968;42.686;23.352;2023-03-31T07:36:12;16.88;;;5.00;;
41233;SDS011;26968;42.686;23.352;2023-03-31T07:38:38;17.80;;;6.90;;
41233;SDS011;26968;42.686;23.352;2023-03-31T07:41:14;11.00;;;5.78;;
41233;SDS011;26968;42.686;23.352;2023-03-31T07:43:42;13.40;;;5.00;;
41233;SDS011;26968;42.686;23.352;2023-03-31T07:46:19;10.10;;;5.22;;
41233;SDS011;26968;42.686;23.352;2023-03-31T07:48:49;16.45;;;5.85;;
41233;SDS011;26968;42.686;23.352;2023-03-31T07:51:16;10.43;;;5.22;;
41233;SDS011;26968;42.686;23.352;2023-03-31T07:53:44;13.48;;;6.15;;
41233;SDS011;26968;42.686;23.352;2023-03-31T07:56:10;17.27;;;6.30;;
41233;SDS011;26968;42.686;23.352;2023-03-31T07:58:36;16.05;;;5.47;;
41233;SDS011;26968;42.686;23.352;2023-03-31T08:01:01;9.88;;;5.00;;
41233;SDS011;26968;42.686;23.352;2023-03-31T08:03:27;22.73;;;5.15;;
41233;SDS011;26968;42.686;23.352;2023-03-31T08:05:53;9.90;;;4.53;;
41233;SDS011;26968;42.686;23.352;2023-03-31T08:08:20;12.82;;;4.43;;
41233;SDS011;26968;42.686;23.352;2023-03-31T08:10:46;16.90;;;4.20;;
41233;SDS011;26968;42.686;23.352;2023-03-31T08:13:12;12.05;;;3.88;;
41233;SDS011;26968;42.686;23.352;2023-03-31T08:15:37;16.20;;;3.55;;
41233;SDS011;26968;42.686;23.352;2023-03-31T08:18:03;13.25;;;4.10;;
41233;SDS011;26968;42.686;23.352;2023-03-31T08:20:29;15.02;;;4.00;;
41233;SDS011;26968;42.686;23.352;2023-03-31T08:22:55;12.15;;;3.35;;
41233;SDS011;26968;42.686;23.352;2023-03-31T08:25:20;9.32;;;3.72;;
41233;SDS011;26968;42.686;23.352;2023-03-31T08:27:47;16.35;;;4.30;;
41233;SDS011;26968;42.686;23.352;2023-03-31T08:30:15;12.70;;;3.38;;
41233;SDS011;26968;42.686;23.352;2023-03-31T08:32:41;14.48;;;3.58;;
41233;SDS011;26968;42.686;23.352;2023-03-31T08:35:06;14.48;;;3.95;;
41233;SDS011;26968;42.686;23.352;2023-03-31T08:37:33;9.60;;;3.50;;
41233;SDS011;26968;42.686;23.352;2023-03-31T08:40:00;11.68;;;3.65;;
41233;SDS011;26968;42.686;23.352;2023-03-31T08:45:37;14.57;;;3.25;;
41233;SDS011;26968;42.686;23.352;2023-03-31T08:48:07;8.03;;;3.20;;
41233;SDS011;26968;42.686;23.352;2023-03-31T08:50:46;16.33;;;3.47;;
41233;SDS011;26968;42.686;23.352;2023-03-31T08:53:19;16.02;;;3.65;;
41233;SDS011;26968;42.686;23.352;2023-03-31T08:55:52;13.50;;;3.13;;
41233;SDS011;26968;42.686;23.352;2023-03-31T08:58:33;8.35;;;3.15;;
41233;SDS011;26968;42.686;23.352;2023-03-31T09:01:43;12.20;;;3.75;;
41233;SDS011;26968;42.686;23.352;2023-03-31T09:12:10;15.68;;;3.80;;
41233;SDS011;26968;42.686;23.352;2023-03-31T09:14:45;12.00;;;3.20;;
41233;SDS011;26968;42.686;23.352;2023-03-31T09:19:59;12.60;;;3.22;;
41233;SDS011;26968;42.686;23.352;2023-03-31T09:25:04;13.25;;;3.45;;
41233;SDS011;26968;42.686;23.352;2023-03-31T09:27:35;6.93;;;3.03;;
41233;SDS011;26968;42.686;23.352;2023-03-31T09:30:24;7.60;;;3.40;;
41233;SDS011;26968;42.686;23.352;2023-03-31T09:32:53;8.15;;;2.78;;
41233;SDS011;26968;42.686;23.352;2023-03-31T09:35:28;16.52;;;2.85;;
41233;SDS011;26968;42.686;23.352;2023-03-31T09:37:58;15.30;;;3.17;;
41233;SDS011;26968;42.686;23.352;2023-03-31T09:40:24;5.10;;;2.72;;
41233;SDS011;26968;42.686;23.352;2023-03-31T09:43:02;7.95;;;2.72;;
41233;SDS011;26968;42.686;23.352;2023-03-31T09:45:30;8.32;;;3.47;;
41233;SDS011;26968;42.686;23.352;2023-03-31T09:48:04;8.48;;;3.10;;
41233;SDS011;26968;42.686;23.352;2023-03-31T09:50:35;12.35;;;2.95;;
41233;SDS011;26968;42.686;23.352;2023-03-31T09:53:10;8.82;;;2.55;;
41233;SDS011;26968;42.686;23.352;2023-03-31T09:55:45;9.93;;;2.90;;
41233;SDS011;26968;42.686;23.352;2023-03-31T09:58:17;11.05;;;3.33;;
41233;SDS011;26968;42.686;23.352;2023-03-31T10:00:58;10.02;;;2.63;;
41233;SDS011;26968;42.686;23.352;2023-03-31T10:05:54;9.00;;;2.67;;
41233;SDS011;26968;42.686;23.352;2023-03-31T10:08:27;8.73;;;2.30;;
41233;SDS011;26968;42.686;23.352;2023-03-31T10:13:27;6.35;;;2.45;;
41233;SDS011;26968;42.686;23.352;2023-03-31T10:16:01;10.40;;;2.55;;
41233;SDS011;26968;42.686;23.352;2023-03-31T10:18:36;8.10;;;2.67;;
41233;SDS011;26968;42.686;23.352;2023-03-31T10:21:04;6.93;;;2.58;;
41233;SDS011;26968;42.686;23.352;2023-03-31T10:23:32;7.90;;;2.72;;
41233;SDS011;26968;42.686;23.352;2023-03-31T10:25:59;7.38;;;2.30;;
41233;SDS011;26968;42.686;23.352;2023-03-31T10:28:31;12.48;;;2.83;;
41233;SDS011;26968;42.686;23.352;2023-03-31T10:30:59;13.02;;;3.22;;
41233;SDS011;26968;42.686;23.352;2023-03-31T10:33:26;8.75;;;2.90;;
41233;SDS011;26968;42.686;23.352;2023-03-31T10:35:59;9.50;;;2.30;;
41233;SDS011;26968;42.686;23.352;2023-03-31T10:38:42;10.02;;;2.53;;
41233;SDS011;26968;42.686;23.352;2023-03-31T10:41:10;14.98;;;4.20;;
41233;SDS011;26968;42.686;23.352;2023-03-31T10:46:05;10.80;;;3.38;;
41233;SDS011;26968;42.686;23.352;2023-03-31T10:50:59;7.50;;;2.40;;
41233;SDS011;26968;42.686;23.352;2023-03-31T10:53:28;8.80;;;2.43;;
41233;SDS011;26968;42.686;23.352;2023-03-31T11:45:54;10.77;;;2.80;;
41233;SDS011;26968;42.686;23.352;2023-03-31T11:51:13;11.07;;;3.17;;
41233;SDS011;26968;42.686;23.352;2023-03-31T11:53:48;11.20;;;2.88;;
41233;SDS011;26968;42.686;23.352;2023-03-31T11:56:17;8.45;;;2.25;;
41233;SDS011;26968;42.686;23.352;2023-03-31T11:58:55;20.63;;;2.70;;
41233;SDS011;26968;42.686;23.352;2023-03-31T12:04:05;13.98;;;3.70;;
41233;SDS011;26968;42.686;23.352;2023-03-31T12:06:34;11.75;;;2.80;;
41233;SDS011;26968;42.686;23.352;2023-03-31T12:09:14;11.02;;;2.90;;
41233;SDS011;26968;42.686;23.352;2023-03-31T12:12:06;8.80;;;2.42;;
41233;SDS011;26968;42.686;23.352;2023-03-31T12:24:50;8.13;;;2.70;;
41233;SDS011;26968;42.686;23.352;2023-03-31T12:27:21;15.10;;;2.28;;
41233;SDS011;26968;42.686;23.352;2023-03-31T12:30:03;11.60;;;3.05;;
41233;SDS011;26968;42.686;23.352;2023-03-31T12:32:54;14.07;;;2.88;;
41233;SDS011;26968;42.686;23.352;2023-03-31T12:41:36;6.82;;;2.15;;
41233;SDS011;26968;42.686;23.352;2023-03-31T12:57:24;7.50;;;2.40;;
41233;SDS011;26968;42.686;23.352;2023-03-31T13:00:12;10.38;;;2.40;;
41233;SDS011;26968;42.686;23.352;2023-03-31T13:02:50;10.23;;;2.30;;
41233;SDS011;26968;42.686;23.352;2023-03-31T13:05:45;10.00;;;2.33;;
41233;SDS011;26968;42.686;23.352;2023-03-31T13:08:12;6.75;;;2.33;;
41233;SDS011;26968;42.686;23.352;2023-03-31T13:11:16;5.05;;;2.17;;
41233;SDS011;26968;42.686;23.352;2023-03-31T13:13:51;12.27;;;2.97;;
41233;SDS011;26968;42.686;23.352;2023-03-31T13:18:53;10.25;;;2.75;;
41233;SDS011;26968;42.686;23.352;2023-03-31T13:21:19;13.40;;;3.42;;
41233;SDS011;26968;42.686;23.352;2023-03-31T13:23:46;9.18;;;2.47;;
41233;SDS011;26968;42.686;23.352;2023-03-31T13:29:57;7.93;;;2.03;;
41233;SDS011;26968;42.686;23.352;2023-03-31T13:32:17;6.13;;;2.33;;
41233;SDS011;26968;42.686;23.352;2023-03-31T13:37:29;6.10;;;2.13;;
41233;SDS011;26968;42.686;23.352;2023-03-31T13:43:19;9.07;;;2.60;;
41233;SDS011;26968;42.686;23.352;2023-03-31T13:51:57;6.18;;;2.05;;
41233;SDS011;26968;42.686;23.352;2023-03-31T13:56:54;13.60;;;2.75;;
41233;SDS011;26968;42.686;23.352;2023-03-31T13:59:50;11.05;;;2.45;;
41233;SDS011;26968;42.686;23.352;2023-03-31T14:08:28;7.22;;;2.00;;
41233;SDS011;26968;42.686;23.352;2023-03-31T14:11:17;8.77;;;2.05;;
41233;SDS011;26968;42.686;23.352;2023-03-31T14:16:37;11.43;;;2.53;;
41233;SDS011;26968;42.686;23.352;2023-03-31T14:21:57;8.95;;;2.10;;
41233;SDS011;26968;42.686;23.352;2023-03-31T14:30:35;17.83;;;4.07;;
41233;SDS011;26968;42.686;23.352;2023-03-31T14:36:20;11.60;;;2.60;;
41233;SDS011;26968;42.686;23.352;2023-03-31T14:39:08;8.15;;;2.85;;
41233;SDS011;26968;42.686;23.352;2023-03-31T14:41:35;7.40;;;2.42;;
41233;SDS011;26968;42.686;23.352;2023-03-31T14:44:03;11.80;;;2.78;;
41233;SDS011;26968;42.686;23.352;2023-03-31T14:46:31;11.68;;;2.65;;
41233;SDS011;26968;42.686;23.352;2023-03-31T14:49:05;14.95;;;3.28;;
41233;SDS011;26968;42.686;23.352;2023-03-31T14:51:41;15.65;;;3.40;;
41233;SDS011;26968;42.686;23.352;2023-03-31T14:54:16;10.13;;;2.97;;
41233;SDS011;26968;42.686;23.352;2023-03-31T14:56:44;14.55;;;3.90;;
41233;SDS011;26968;42.686;23.352;2023-03-31T14:59:15;7.97;;;2.47;;
41233;SDS011;26968;42.686;23.352;2023-03-31T15:01:45;9.90;;;2.55;;
41233;SDS011;26968;42.686;23.352;2023-03-31T15:04:13;9.27;;;2.97;;
41233;SDS011;26968;42.686;23.352;2023-03-31T15:06:43;9.88;;;2.97;;
41233;SDS011;26968;42.686;23.352;2023-03-31T15:09:14;7.75;;;2.85;;
41233;SDS011;26968;42.686;23.352;2023-03-31T15:11:45;8.75;;;2.38;;
41233;SDS011;26968;42.686;23.352;2023-03-31T15:14:11;9.85;;;2.40;;
41233;SDS011;26968;42.686;23.352;2023-03-31T15:16:41;11.50;;;2.67;;
41233;SDS011;26968;42.686;23.352;2023-03-31T15:21:40;11.82;;;3.42;;
41233;SDS011;26968;42.686;23.352;2023-03-31T15:24:06;13.50;;;3.42;;
41233;SDS011;26968;42.686;23.352;2023-03-31T15:26:36;10.57;;;2.60;;
41233;SDS011;26968;42.686;23.352;2023-03-31T15:29:10;12.35;;;3.63;;
41233;SDS011;26968;42.686;23.352;2023-03-31T15:31:56;11.00;;;2.97;;
41233;SDS011;26968;42.686;23.352;2023-03-31T15:34:26;9.88;;;3.20;;
41233;SDS011;26968;42.686;23.352;2023-03-31T15:36:57;11.40;;;2.50;;
41233;SDS011;26968;42.686;23.352;2023-03-31T15:39:24;14.63;;;3.25;;
41233;SDS011;26968;42.686;23.352;2023-03-31T15:41:51;12.40;;;3.33;;
41233;SDS011;26968;42.686;23.352;2023-03-31T15:44:28;10.18;;;2.83;;
41233;SDS011;26968;42.686;23.352;2023-03-31T15:47:01;11.63;;;3.50;;
41233;SDS011;26968;42.686;23.352;2023-03-31T15:52:28;8.90;;;2.90;;
41233;SDS011;26968;42.686;23.352;2023-03-31T15:55:23;11.65;;;3.13;;
41233;SDS011;26968;42.686;23.352;2023-03-31T15:57:48;9.93;;;2.65;;
41233;SDS011;26968;42.686;23.352;2023-03-31T16:03:02;12.95;;;2.70;;
41233;SDS011;26968;42.686;23.352;2023-03-31T16:05:41;8.65;;;2.85;;
41233;SDS011;26968;42.686;23.352;2023-03-31T16:08:28;9.13;;;2.90;;
41233;SDS011;26968;42.686;23.352;2023-03-31T16:11:14;9.02;;;2.90;;
41233;SDS011;26968;42.686;23.352;2023-03-31T16:13:46;12.15;;;2.88;;
41233;SDS011;26968;42.686;23.352;2023-03-31T16:16:17;12.88;;;3.38;;
41233;SDS011;26968;42.686;23.352;2023-03-31T16:18:49;10.68;;;3.20;;
41233;SDS011;26968;42.686;23.352;2023-03-31T16:21:19;12.80;;;3.53;;
41233;SDS011;26968;42.686;23.352;2023-03-31T16:23:50;13.07;;;3.97;;
41233;SDS011;26968;42.686;23.352;2023-03-31T16:26:21;8.05;;;3.53;;
41233;SDS011;26968;42.686;23.352;2023-03-31T16:28:49;15.15;;;4.97;;
41233;SDS011;26968;42.686;23.352;2023-03-31T16:31:50;11.82;;;3.83;;
41233;SDS011;26968;42.686;23.352;2023-03-31T16:34:09;10.82;;;4.35;;
41233;SDS011;26968;42.686;23.352;2023-03-31T16:36:35;14.90;;;4.82;;
41233;SDS011;26968;42.686;23.352;2023-03-31T16:39:01;12.43;;;5.20;;
41233;SDS011;26968;42.686;23.352;2023-03-31T16:41:29;11.35;;;4.18;;
41233;SDS011;26968;42.686;23.352;2023-03-31T16:43:56;12.95;;;4.70;;
41233;SDS011;26968;42.686;23.352;2023-03-31T16:46:22;10.48;;;4.63;;
41233;SDS011;26968;42.686;23.352;2023-03-31T16:48:47;18.02;;;5.13;;
41233;SDS011;26968;42.686;23.352;2023-03-31T16:51:13;13.88;;;5.28;;
41233;SDS011;26968;42.686;23.352;2023-03-31T16:53:39;19.50;;;6.40;;
41233;SDS011;26968;42.686;23.352;2023-03-31T16:56:06;17.00;;;6.43;;
41233;SDS011;26968;42.686;23.352;2023-03-31T16:58:32;22.48;;;5.47;;
41233;SDS011;26968;42.686;23.352;2023-03-31T17:00:58;17.27;;;5.15;;
41233;SDS011;26968;42.686;23.352;2023-03-31T17:03:24;22.25;;;6.30;;
41233;SDS011;26968;42.686;23.352;2023-03-31T17:05:51;25.60;;;6.40;;
41233;SDS011;26968;42.686;23.352;2023-03-31T17:08:19;25.30;;;6.32;;
41233;SDS011;26968;42.686;23.352;2023-03-31T17:11:01;18.25;;;6.20;;
41233;SDS011;26968;42.686;23.352;2023-03-31T17:13:29;20.10;;;6.15;;
41233;SDS011;26968;42.686;23.352;2023-03-31T17:15:56;22.55;;;6.07;;
41233;SDS011;26968;42.686;23.352;2023-03-31T17:18:22;20.52;;;7.07;;
41233;SDS011;26968;42.686;23.352;2023-03-31T17:20:47;21.77;;;6.32;;
41233;SDS011;26968;42.686;23.352;2023-03-31T17:23:13;20.83;;;4.97;;
41233;SDS011;26968;42.686;23.352;2023-03-31T17:25:45;19.38;;;6.13;;
41233;SDS011;26968;42.686;23.352;2023-03-31T17:28:11;21.30;;;7.43;;
41233;SDS011;26968;42.686;23.352;2023-03-31T17:30:36;19.23;;;5.70;;
41233;SDS011;26968;42.686;23.352;2023-03-31T17:33:03;15.73;;;5.60;;
41233;SDS011;26968;42.686;23.352;2023-03-31T17:35:28;23.38;;;6.50;;
41233;SDS011;26968;42.686;23.352;2023-03-31T17:37:54;17.83;;;6.55;;
41233;SDS011;26968;42.686;23.352;2023-03-31T17:40:20;21.83;;;7.22;;
41233;SDS011;26968;42.686;23.352;2023-03-31T17:42:47;32.78;;;8.75;;
41233;SDS011;26968;42.686;23.352;2023-03-31T17:45:12;33.70;;;8.68;;
41233;SDS011;26968;42.686;23.352;2023-03-31T17:47:38;19.00;;;7.00;;
41233;SDS011;26968;42.686;23.352;2023-03-31T17:50:05;20.05;;;7.07;;
41233;SDS011;26968;42.686;23.352;2023-03-31T17:52:32;23.80;;;7.28;;
41233;SDS011;26968;42.686;23.352;2023-03-31T17:54:59;19.05;;;7.13;;
41233;SDS011;26968;42.686;23.352;2023-03-31T17:57:27;26.70;;;7.35;;
41233;SDS011;26968;42.686;23.352;2023-03-31T17:59:52;23.92;;;8.30;;
41233;SDS011;26968;42.686;23.352;2023-03-31T18:02:18;25.67;;;9.02;;
41233;SDS011;26968;42.686;23.352;2023-03-31T18:04:43;34.20;;;8.30;;
41233;SDS011;26968;42.686;23.352;2023-03-31T18:07:09;18.23;;;6.93;;
41233;SDS011;26968;42.686;23.352;2023-03-31T18:09:34;29.83;;;9.70;;